Time;durP1;ratioP1;P1;durP2;ratioP2;P2;SDS_P1;SDS_P2;PMS_P1;PMS_P2;Temp;Humidity;BMP_temperature;BMP_pressure;BME280_temperature;BME280_humidity;BME280_pressure;Samples;Min_cycle;Max_cycle;Signal;HPM_P1;HPM_P2
2022/11/03 00:00:29;;;;;;;6.47;2.22;;;;;;;22.36;45.12;101380.88;5086780;28;20043;-65
2022/11/03 00:02:54;;;;;;;3.55;1.90;;;;;;;22.36;45.22;101372.09;5085361;28;20047;-64
2022/11/03 00:08:04;;;;;;;4.57;1.60;;;;;;;22.34;45.06;101356.38;5086945;28;20041;-64
2022/11/03 00:10:30;;;;;;;6.63;1.85;;;;;;;22.35;45.12;101357.19;5097555;27;20041;-64
2022/11/03 00:12:55;;;;;;;4.25;1.92;;;;;;;22.33;45.04;101362.69;5087355;28;20032;-63
2022/11/03 00:15:21;;;;;;;2.95;1.73;;;;;;;22.25;45.27;101355.63;5085565;28;20047;-63
2022/11/03 00:17:47;;;;;;;4.60;2.67;;;;;;;22.27;45.00;101348.31;5092406;28;20043;-64
2022/11/03 00:20:12;;;;;;;4.68;1.90;;;;;;;22.35;45.03;101346.56;5088591;28;20051;-63
2022/11/03 00:22:38;;;;;;;2.85;1.55;;;;;;;22.22;45.51;101352.50;5087759;28;20062;-64
2022/11/03 00:25:04;;;;;;;4.75;1.80;;;;;;;22.08;45.60;101355.97;5093453;28;20028;-63
2022/11/03 00:27:29;;;;;;;3.83;1.90;;;;;;;22.15;45.76;101341.81;5089395;28;20051;-63
2022/11/03 00:29:55;;;;;;;7.15;2.20;;;;;;;22.18;45.30;101346.75;5094293;28;20048;-63
2022/11/03 00:32:20;;;;;;;2.97;1.88;;;;;;;22.09;45.72;101347.88;5095255;28;20038;-63
2022/11/03 00:34:46;;;;;;;4.03;1.95;;;;;;;22.21;45.37;101353.53;5091739;28;20074;-63
2022/11/03 00:37:12;;;;;;;5.82;1.83;;;;;;;22.06;45.61;101365.94;5091970;28;20058;-63
2022/11/03 00:39:37;;;;;;;5.13;2.00;;;;;;;22.08;45.67;101364.75;5089412;28;20145;-63
2022/11/03 00:42:03;;;;;;;7.85;2.65;;;;;;;21.99;46.00;101347.25;5091893;28;20493;-63
2022/11/03 00:44:28;;;;;;;5.63;2.00;;;;;;;21.88;45.95;101343.22;5091001;28;20128;-63
2022/11/03 00:46:54;;;;;;;4.03;2.03;;;;;;;21.98;45.93;101337.66;5092375;28;20126;-63
2022/11/03 00:49:19;;;;;;;4.72;1.80;;;;;;;21.96;45.98;101345.81;5091070;28;20044;-63
2022/11/03 00:51:45;;;;;;;6.75;2.10;;;;;;;22.00;45.64;101319.75;5091274;28;20046;-63
2022/11/03 00:54:10;;;;;;;2.45;1.70;;;;;;;21.93;45.76;101322.31;5089975;28;20032;-63
2022/11/03 00:56:41;;;;;;;5.28;2.05;;;;;;;21.93;46.04;101318.84;5093845;28;20050;-63
2022/11/03 00:59:08;;;;;;;2.42;1.85;;;;;;;21.88;46.25;101319.34;5086407;28;20040;-63
2022/11/03 01:01:40;;;;;;;3.30;1.67;;;;;;;21.88;46.24;101313.22;5089443;28;20055;-63
2022/11/03 01:06:52;;;;;;;3.83;1.75;;;;;;;21.83;46.03;101294.41;5092855;28;20032;-64
2022/11/03 01:09:35;;;;;;;6.38;2.40;;;;;;;21.86;46.40;101284.25;5087551;28;20040;-63
2022/11/03 01:12:08;;;;;;;4.55;2.00;;;;;;;21.78;46.28;101280.88;5089556;28;20047;-64
2022/11/03 01:14:44;;;;;;;4.03;1.98;;;;;;;21.80;46.29;101282.31;5084240;28;20040;-64
2022/11/03 01:17:13;;;;;;;4.72;2.03;;;;;;;21.84;46.32;101277.47;5087498;28;20031;-64
2022/11/03 01:19:39;;;;;;;2.47;1.50;;;;;;;21.79;46.29;101269.25;5090430;28;20023;-64
2022/11/03 01:22:05;;;;;;;3.38;1.73;;;;;;;21.70;46.46;101263.19;5087713;28;20046;-64
2022/11/03 01:24:30;;;;;;;4.80;2.00;;;;;;;21.72;46.36;101255.88;5085793;28;20046;-63
2022/11/03 01:26:56;;;;;;;4.32;1.48;;;;;;;21.70;46.30;101253.41;5087262;28;20036;-63
2022/11/03 01:29:22;;;;;;;5.80;2.05;;;;;;;21.71;46.62;101251.59;5089951;28;20044;-63
2022/11/03 01:31:48;;;;;;;3.85;1.45;;;;;;;21.73;46.62;101249.63;5085902;28;20036;-63
2022/11/03 01:34:18;;;;;;;3.90;1.75;;;;;;;21.67;46.54;101250.31;5090765;28;20827;-63
2022/11/03 01:36:44;;;;;;;3.13;1.63;;;;;;;21.68;46.70;101244.00;5083916;28;20043;-63
2022/11/03 01:39:11;;;;;;;7.22;1.95;;;;;;;21.67;46.42;101245.03;5092562;28;20442;-63
2022/11/03 01:41:37;;;;;;;3.92;1.70;;;;;;;21.70;46.26;101248.13;5090841;28;20024;-63
2022/11/03 01:44:05;;;;;;;3.75;1.55;;;;;;;21.69;46.27;101245.66;5088106;28;20048;-63
2022/11/03 01:46:33;;;;;;;5.68;1.90;;;;;;;21.68;46.29;101233.41;5093307;28;20998;-63
2022/11/03 01:49:16;;;;;;;5.50;1.60;;;;;;;21.75;46.43;101238.81;5089755;28;20054;-63
2022/11/03 01:51:44;;;;;;;5.70;2.33;;;;;;;21.63;46.67;101217.25;5087573;28;20036;-63
2022/11/03 01:54:13;;;;;;;4.95;2.08;;;;;;;21.59;46.57;101215.97;5088610;28;20027;-63
2022/11/03 01:56:45;;;;;;;3.67;2.08;;;;;;;21.67;46.51;101219.34;5089614;28;20884;-63
2022/11/03 01:59:11;;;;;;;3.88;2.00;;;;;;;21.62;46.78;101210.28;5088365;28;20118;-63
2022/11/03 02:01:37;;;;;;;2.75;1.60;;;;;;;21.65;46.54;101221.34;5090796;28;20024;-64
2022/11/03 02:04:13;;;;;;;6.70;2.17;;;;;;;21.57;46.50;101213.50;5088988;28;20036;-63
2022/11/03 02:06:38;;;;;;;4.22;1.80;;;;;;;21.66;46.47;101214.22;5092461;28;20093;-63
2022/11/03 02:09:06;;;;;;;5.03;2.42;;;;;;;21.66;46.16;101211.56;5088911;28;20036;-63
2022/11/03 02:14:18;;;;;;;7.07;2.10;;;;;;;21.51;46.54;101205.44;5095280;28;20042;-63
2022/11/03 02:16:49;;;;;;;5.35;1.90;;;;;;;21.53;46.73;101203.41;5093857;28;21696;-63
2022/11/03 02:19:26;;;;;;;3.63;2.17;;;;;;;21.55;46.50;101193.50;5093561;28;20035;-63
2022/11/03 02:22:03;;;;;;;4.43;2.22;;;;;;;21.55;46.52;101189.00;5091720;28;20088;-63
2022/11/03 02:24:47;;;;;;;5.57;1.92;;;;;;;21.58;46.71;101195.78;5086282;28;20067;-64
2022/11/03 02:27:12;;;;;;;5.10;2.35;;;;;;;21.59;46.36;101192.94;5091303;28;20035;-64
2022/11/03 02:29:38;;;;;;;5.70;2.00;;;;;;;21.57;46.75;101200.25;5092296;28;20034;-63
2022/11/03 02:32:10;;;;;;;5.53;2.40;;;;;;;21.56;46.43;101206.56;5094522;28;20040;-63
2022/11/03 02:34:39;;;;;;;3.08;1.95;;;;;;;21.56;46.46;101200.44;5090583;28;20738;-63
2022/11/03 02:37:11;;;;;;;5.93;1.92;;;;;;;21.56;46.62;101200.44;5089357;28;20125;-64
2022/11/03 02:39:51;;;;;;;6.20;2.28;;;;;;;21.51;46.55;101198.31;5094349;28;20124;-63
2022/11/03 02:42:18;;;;;;;2.95;1.75;;;;;;;21.52;46.87;101199.94;5095496;28;20043;-63
2022/11/03 02:44:46;;;;;;;3.83;1.80;;;;;;;21.52;46.46;101199.94;5089178;28;20059;-63
2022/11/03 02:47:13;;;;;;;5.82;2.03;;;;;;;21.49;46.81;101188.91;5085674;28;20042;-63
2022/11/03 02:49:45;;;;;;;5.05;1.80;;;;;;;21.49;46.58;101186.25;5093616;28;20047;-63
2022/11/03 02:52:37;;;;;;;4.30;1.75;;;;;;;21.53;46.64;101183.03;5089006;28;20036;-63
2022/11/03 02:55:24;;;;;;;4.30;2.03;;;;;;;21.44;46.78;101176.19;5093832;28;20032;-63
2022/11/03 02:57:59;;;;;;;4.45;2.50;;;;;;;21.54;46.67;101171.44;5092856;28;20039;-63
2022/11/03 03:00:27;;;;;;;5.57;1.98;;;;;;;21.40;46.78;101166.97;5093284;28;20035;-63
2022/11/03 03:03:00;;;;;;;4.10;2.15;;;;;;;21.51;46.80;101165.69;5089852;28;20043;-63
2022/11/03 03:05:30;;;;;;;5.00;1.73;;;;;;;21.54;46.70;101162.66;5094078;28;20046;-63
2022/11/03 03:08:00;;;;;;;8.00;2.40;;;;;;;21.54;46.41;101167.97;5092979;28;20050;-63
2022/11/03 03:10:29;;;;;;;;;;;;;;;21.46;46.80;101166.25;5090887;28;20050;-63
2022/11/03 03:12:57;;;;;;;3.53;1.77;;;;;;;21.43;47.02;101161.31;5093379;28;19916;-63
2022/11/03 03:15:43;;;;;;;4.68;2.17;;;;;;;21.50;46.43;101164.88;5094046;28;20040;-63
2022/11/03 03:18:19;;;;;;;4.03;1.98;;;;;;;21.48;46.48;101169.53;5092261;28;20032;-63
2022/11/03 03:20:47;;;;;;;5.03;1.98;;;;;;;21.49;46.48;101157.94;5084309;28;20048;-63
2022/11/03 03:23:20;;;;;;;5.72;2.10;;;;;;;21.45;46.67;101159.31;5095881;28;20051;-64
2022/11/03 03:26:03;;;;;;;5.13;1.92;;;;;;;21.39;46.88;101155.56;5089967;28;20039;-63
2022/11/03 03:28:54;;;;;;;6.15;2.00;;;;;;;21.37;47.13;101154.94;5088638;28;20036;-63
2022/11/03 03:31:21;;;;;;;4.63;2.35;;;;;;;21.43;46.80;101150.72;5091567;28;20027;-63
2022/11/03 03:33:51;;;;;;;5.53;1.95;;;;;;;21.44;46.96;101144.41;5088955;28;20123;-63
2022/11/03 03:36:18;;;;;;;3.90;1.80;;;;;;;21.41;46.57;101137.66;5089588;28;20601;-63
2022/11/03 03:38:51;;;;;;;4.15;2.00;;;;;;;21.41;46.67;101147.44;5094765;28;20034;-63
2022/11/03 03:41:20;;;;;;;3.38;1.55;;;;;;;21.44;46.89;101148.88;5093744;28;22057;-63
2022/11/03 03:43:56;;;;;;;5.55;1.98;;;;;;;21.42;46.83;101146.41;5089732;28;20185;-63
2022/11/03 03:46:25;;;;;;;4.03;1.85;;;;;;;21.42;46.79;101141.13;5087979;28;20050;-63
2022/11/03 03:48:52;;;;;;;3.67;1.55;;;;;;;21.46;46.76;101128.31;5089055;28;20039;-63
2022/11/03 03:51:21;;;;;;;2.38;1.98;;;;;;;21.39;46.85;101130.91;5087145;28;20047;-63
2022/11/03 03:53:51;;;;;;;5.03;1.83;;;;;;;21.46;46.60;101131.81;5090324;28;20402;-63
2022/11/03 03:56:22;;;;;;;2.65;1.67;;;;;;;21.40;46.89;101135.19;5091631;28;20082;-63
2022/11/03 03:58:48;;;;;;;4.78;1.90;;;;;;;21.37;46.64;101132.91;5092136;28;20516;-63
2022/11/03 04:01:13;;;;;;;3.90;1.65;;;;;;;21.40;46.68;101130.72;5089973;28;20048;-63
2022/11/03 04:03:39;;;;;;;3.20;1.58;;;;;;;21.38;46.69;101122.13;5094247;28;20044;-63
2022/11/03 04:06:04;;;;;;;3.50;2.20;;;;;;;21.29;47.13;101122.38;5088380;28;20069;-64
2022/11/03 04:08:30;;;;;;;3.28;1.70;;;;;;;21.34;46.77;101115.53;5092740;28;20051;-64
2022/11/03 04:24:39;;;;;;;4.78;2.17;;;;;;;21.32;46.72;101096.34;5087992;28;20043;-64
2022/11/03 04:27:30;;;;;;;5.75;2.10;;;;;;;21.33;46.84;101081.28;5095150;28;20491;-64
2022/11/03 04:30:08;;;;;;;4.03;1.90;;;;;;;21.32;46.98;101079.63;5094121;28;20063;-65
2022/11/03 04:32:34;;;;;;;3.78;1.98;;;;;;;21.29;46.59;101074.72;5090145;28;20036;-63
2022/11/03 04:35:13;;;;;;;6.63;1.90;;;;;;;21.30;46.76;101074.53;5088910;28;20027;-64
2022/11/03 04:37:38;;;;;;;4.55;1.80;;;;;;;21.32;46.89;101069.84;5090225;28;20123;-64
2022/11/03 04:40:13;;;;;;;2.25;1.42;;;;;;;21.33;46.91;101074.16;5089266;28;20044;-64
2022/11/03 04:42:38;;;;;;;3.00;1.63;;;;;;;21.35;46.67;101074.78;5090853;28;20036;-64
2022/11/03 04:45:33;;;;;;;4.47;1.83;;;;;;;21.35;46.67;101071.31;5084716;28;20071;-64
2022/11/03 04:48:05;;;;;;;4.05;1.65;;;;;;;21.31;46.60;101068.22;5091587;28;20972;-64
2022/11/03 04:50:30;;;;;;;5.93;1.85;;;;;;;21.27;46.89;101066.13;5090367;28;20050;-64
2022/11/03 04:52:57;;;;;;;6.88;2.22;;;;;;;21.33;46.91;101066.19;5093249;28;20031;-64
2022/11/03 04:55:24;;;;;;;5.10;2.00;;;;;;;21.34;46.80;101059.91;5090514;28;20043;-64
2022/11/03 04:57:56;;;;;;;3.53;1.95;;;;;;;21.25;47.13;101058.38;5087322;28;20035;-64
2022/11/03 05:00:22;;;;;;;4.07;2.03;;;;;;;21.30;47.07;101045.38;5091113;28;20060;-64
2022/11/03 05:02:49;;;;;;;4.70;2.08;;;;;;;21.29;46.87;101050.88;5085806;28;20115;-64
2022/11/03 05:05:20;;;;;;;4.45;1.90;;;;;;;21.31;46.95;101044.38;5088791;28;20100;-64
2022/11/03 05:07:51;;;;;;;3.70;1.75;;;;;;;21.32;46.96;101042.56;5090228;28;20052;-64
2022/11/03 05:10:22;;;;;;;4.28;2.03;;;;;;;21.28;46.77;101043.94;5088387;28;20043;-64
2022/11/03 05:12:49;;;;;;;3.20;1.70;;;;;;;21.32;46.66;101053.16;5091549;28;20541;-64
2022/11/03 05:15:33;;;;;;;2.88;1.83;;;;;;;21.30;46.84;101044.56;5090132;28;20032;-64
2022/11/03 05:18:02;;;;;;;3.85;1.65;;;;;;;21.26;46.75;101036.16;5090100;28;20046;-63
2022/11/03 05:20:33;;;;;;;4.07;1.75;;;;;;;21.22;46.80;101037.53;5090730;28;20027;-63
2022/11/03 05:22:59;;;;;;;5.88;2.30;;;;;;;21.25;46.98;101042.47;5087337;28;20048;-63
2022/11/03 05:25:43;;;;;;;6.35;2.05;;;;;;;21.26;47.05;101038.00;5084926;28;20386;-63
2022/11/03 05:28:36;;;;;;;4.38;1.67;;;;;;;21.23;47.06;101031.22;5089129;28;20150;-63
2022/11/03 05:31:27;;;;;;;5.35;1.92;;;;;;;21.30;46.84;101039.28;5087900;28;20055;-64
2022/11/03 05:33:56;;;;;;;3.05;1.90;;;;;;;21.17;47.05;101031.94;5088897;28;20024;-63
2022/11/03 05:36:24;;;;;;;4.43;2.22;;;;;;;21.26;46.63;101038.00;5094039;28;20123;-63
2022/11/03 05:38:53;;;;;;;3.03;1.70;;;;;;;21.17;47.14;101044.34;5088661;28;20116;-63
2022/11/03 05:41:24;;;;;;;4.57;2.15;;;;;;;21.15;46.88;101035.78;5087862;28;20039;-63
2022/11/03 05:44:02;;;;;;;5.32;2.28;;;;;;;21.15;47.25;101031.28;5085168;28;20036;-63
2022/11/03 05:46:30;;;;;;;5.05;2.10;;;;;;;21.27;46.73;101018.44;5089236;28;20058;-63
2022/11/03 05:49:00;;;;;;;4.28;1.83;;;;;;;21.22;46.94;101028.75;5089439;28;20385;-63
2022/11/03 05:51:52;;;;;;;4.95;2.10;;;;;;;21.24;46.92;101016.16;5090005;28;20035;-63
2022/11/03 05:54:22;;;;;;;3.65;1.98;;;;;;;21.26;46.95;101009.69;5090997;28;20460;-63
2022/11/03 05:56:47;;;;;;;4.78;2.25;;;;;;;21.28;46.99;101015.63;5094160;28;20044;-63
2022/11/03 05:59:19;;;;;;;4.70;1.90;;;;;;;21.22;47.07;101018.97;5089545;28;20392;-63
2022/11/03 06:01:44;;;;;;;2.97;1.98;;;;;;;21.19;47.14;101000.00;5091673;28;20043;-65
2022/11/03 06:04:25;;;;;;;2.65;1.40;;;;;;;21.27;46.67;101000.72;5094196;28;20027;-65
2022/11/03 06:07:25;;;;;;;3.28;2.15;;;;;;;21.18;46.96;101001.78;5089930;28;20466;-65
2022/11/03 06:09:53;;;;;;;3.92;1.80;;;;;;;21.15;46.99;100988.94;5091251;28;20060;-63
2022/11/03 06:12:21;;;;;;;4.72;2.00;;;;;;;21.13;46.94;101002.34;5088251;28;20131;-63
2022/11/03 06:14:48;;;;;;;2.35;1.33;;;;;;;21.22;47.12;101003.09;5092535;28;20815;-63
2022/11/03 06:17:24;;;;;;;4.05;1.85;;;;;;;21.13;47.17;100997.06;5093851;28;20036;-65
2022/11/03 06:19:56;;;;;;;2.83;2.00;;;;;;;21.19;46.87;100989.41;5091320;28;20043;-65
2022/11/03 06:22:27;;;;;;;4.68;1.77;;;;;;;21.15;47.01;100993.41;5090864;28;20588;-65
2022/11/03 06:25:00;;;;;;;3.83;1.77;;;;;;;21.21;47.10;100987.38;5092300;28;20036;-65
2022/11/03 06:27:29;;;;;;;3.75;1.67;;;;;;;21.16;47.07;100987.09;5091525;28;20039;-64
2022/11/03 06:30:01;;;;;;;5.25;2.42;;;;;;;21.19;47.18;100989.41;5092009;28;20626;-65
2022/11/03 06:32:27;;;;;;;3.83;1.98;;;;;;;21.22;46.64;100979.25;5087360;28;20072;-65
2022/11/03 06:34:56;;;;;;;4.95;1.90;;;;;;;21.19;46.90;100978.81;5091331;28;20119;-65
2022/11/03 06:37:25;;;;;;;3.25;1.80;;;;;;;21.21;46.70;100982.09;5090295;28;20050;-65
2022/11/03 06:39:58;;;;;;;5.68;2.00;;;;;;;21.10;47.25;100980.72;5090687;28;20785;-65
2022/11/03 06:42:26;;;;;;;4.85;1.90;;;;;;;21.09;47.05;100982.56;5087288;28;20039;-65
2022/11/03 06:44:52;;;;;;;4.30;2.00;;;;;;;21.11;47.13;100979.72;5090968;28;20056;-65
2022/11/03 06:47:17;;;;;;;3.85;1.80;;;;;;;21.07;47.19;100973.97;5094490;28;20654;-65
2022/11/03 06:49:43;;;;;;;2.70;1.95;;;;;;;21.18;46.92;100977.97;5089846;28;20040;-65
2022/11/03 06:52:24;;;;;;;4.75;1.77;;;;;;;21.13;47.14;100965.28;5096272;28;20039;-65
2022/11/03 06:55:06;;;;;;;5.75;2.10;;;;;;;21.17;47.05;100978.16;5091634;28;20683;-65
2022/11/03 06:57:36;;;;;;;3.55;2.08;;;;;;;21.10;47.06;100970.13;5091680;28;20069;-65
2022/11/03 07:00:14;;;;;;;5.88;2.05;;;;;;;21.16;47.13;100972.03;5091016;28;20092;-65
2022/11/03 07:02:55;;;;;;;3.92;2.00;;;;;;;21.17;46.77;100968.38;5092360;28;20166;-65
2022/11/03 07:05:24;;;;;;;5.00;2.38;;;;;;;21.22;46.89;100967.84;5096438;27;20126;-65
2022/11/03 07:07:57;;;;;;;4.97;2.03;;;;;;;21.12;46.85;100955.69;5094928;28;20101;-65
2022/11/03 07:10:25;;;;;;;6.43;1.95;;;;;;;21.14;47.10;100958.16;5092311;28;20059;-65
2022/11/03 07:12:53;;;;;;;2.60;1.55;;;;;;;21.08;47.10;100959.72;5093628;28;20402;-65
2022/11/03 07:15:23;;;;;;;3.88;2.10;;;;;;;21.11;47.07;100956.69;5090220;28;20118;-65
2022/11/03 07:17:49;;;;;;;4.25;2.20;;;;;;;21.17;46.77;100955.13;5088149;28;20657;-65
2022/11/03 07:20:15;;;;;;;4.20;2.15;;;;;;;21.15;46.98;100948.38;5091717;28;20047;-65
2022/11/03 07:22:42;;;;;;;5.70;2.17;;;;;;;21.12;46.83;100945.09;5091673;28;20043;-65
2022/11/03 07:25:14;;;;;;;4.97;2.05;;;;;;;21.09;47.20;100934.88;5096908;28;20058;-65
2022/11/03 07:27:40;;;;;;;3.50;1.88;;;;;;;21.08;47.27;100927.94;5096460;28;20039;-65
2022/11/03 07:30:19;;;;;;;2.25;1.40;;;;;;;21.08;47.05;100954.44;5094113;28;20039;-65
2022/11/03 07:32:45;;;;;;;5.72;2.30;;;;;;;21.09;47.11;100932.25;5090826;28;20031;-65
2022/11/03 07:35:16;;;;;;;5.25;1.95;;;;;;;21.12;46.75;100928.41;5090127;28;20077;-65
2022/11/03 07:37:43;;;;;;;4.75;2.30;;;;;;;21.06;47.13;100929.16;5093958;28;20422;-65
2022/11/03 07:40:15;;;;;;;4.32;2.00;;;;;;;21.10;46.87;100927.75;5091804;28;20132;-65
2022/11/03 07:42:40;;;;;;;6.18;2.38;;;;;;;21.12;46.88;100923.09;5089854;28;20455;-66
2022/11/03 07:45:39;;;;;;;4.82;2.08;;;;;;;21.15;47.04;100922.72;5089662;28;20092;-65
2022/11/03 07:48:20;;;;;;;5.57;1.98;;;;;;;21.12;46.96;100921.28;5091407;28;20043;-65
2022/11/03 07:50:48;;;;;;;6.65;2.42;;;;;;;21.07;47.10;100925.50;5091803;28;20063;-65
2022/11/03 07:53:36;;;;;;;4.78;2.35;;;;;;;21.02;47.10;100910.16;5091406;28;20043;-65
2022/11/03 07:56:14;;;;;;;3.22;2.00;;;;;;;21.08;46.95;100909.41;5086522;28;20894;-65
2022/11/03 07:58:41;;;;;;;4.57;1.90;;;;;;;21.07;47.22;100910.44;5092696;28;20047;-65
2022/11/03 08:01:27;;;;;;;5.90;2.45;;;;;;;21.12;46.91;100900.09;5091697;28;20563;-65
2022/11/03 08:03:59;;;;;;;4.13;2.00;;;;;;;21.07;47.02;100905.13;5092863;28;20036;-66
2022/11/03 08:06:25;;;;;;;3.15;1.90;;;;;;;21.05;47.07;100899.19;5090683;28;20044;-65
2022/11/03 08:08:51;;;;;;;5.55;2.25;;;;;;;21.13;46.92;100895.63;5097392;28;20054;-66
2022/11/03 08:11:16;;;;;;;4.13;2.35;;;;;;;21.19;46.97;100894.06;5096488;28;20035;-66
2022/11/03 08:13:42;;;;;;;4.28;2.10;;;;;;;21.14;46.94;100891.97;5094101;28;20381;-66
2022/11/03 08:16:07;;;;;;;5.15;1.80;;;;;;;21.16;46.71;100891.78;5086868;28;20093;-66
2022/11/03 08:18:33;;;;;;;2.88;1.77;;;;;;;21.16;46.96;100891.78;5091158;28;20104;-65
2022/11/03 08:20:58;;;;;;;4.85;1.70;;;;;;;21.23;46.92;100876.78;5093394;28;20048;-65
2022/11/03 08:23:24;;;;;;;4.47;2.13;;;;;;;21.19;47.00;100881.66;5089752;28;20036;-66
2022/11/03 08:25:49;;;;;;;3.80;2.28;;;;;;;21.18;46.74;100871.22;5089112;28;20039;-65
2022/11/03 08:28:15;;;;;;;3.20;2.15;;;;;;;21.17;47.17;100873.03;5094644;28;20051;-65
2022/11/03 08:30:40;;;;;;;4.30;1.88;;;;;;;21.22;46.89;100869.84;5096368;28;20090;-65
2022/11/03 08:33:06;;;;;;;3.25;1.88;;;;;;;21.20;47.05;100864.75;5096826;28;20039;-65
2022/11/03 08:35:32;;;;;;;4.05;1.92;;;;;;;21.11;47.02;100857.91;5095724;28;20066;-65
2022/11/03 08:37:57;;;;;;;5.03;2.20;;;;;;;21.12;47.11;100846.31;5097741;28;20035;-65
2022/11/03 08:40:23;;;;;;;4.25;2.03;;;;;;;21.12;46.93;100863.03;5093822;28;20509;-65
2022/11/03 08:42:49;;;;;;;3.55;1.90;;;;;;;21.11;46.96;100860.56;5091745;28;20047;-64
2022/11/03 08:45:15;;;;;;;4.68;2.35;;;;;;;21.06;47.24;100841.78;5097107;28;20626;-65
2022/11/03 08:47:40;;;;;;;2.90;1.80;;;;;;;21.09;46.87;100852.81;5089503;28;20130;-65
2022/11/03 08:50:06;;;;;;;5.25;1.70;;;;;;;21.12;47.17;100857.72;5097690;28;20209;-65
2022/11/03 08:52:32;;;;;;;3.55;2.00;;;;;;;21.06;47.05;100845.25;5093681;28;20085;-65
2022/11/03 08:54:57;;;;;;;4.05;1.98;;;;;;;21.13;46.88;100850.59;5092450;28;20117;-65
2022/11/03 08:57:23;;;;;;;5.22;2.05;;;;;;;21.17;46.81;100854.50;5088980;28;20036;-65
2022/11/03 08:59:51;;;;;;;6.15;3.15;;;;;;;21.09;47.32;100849.34;5087599;28;20582;-65
2022/11/03 09:02:16;;;;;;;4.60;2.10;;;;;;;21.13;47.00;100850.59;5092560;28;20043;-65
2022/11/03 09:04:42;;;;;;;4.30;2.00;;;;;;;21.13;46.99;100835.53;5092721;28;20035;-65
2022/11/03 09:07:07;;;;;;;3.97;2.00;;;;;;;21.20;46.71;100840.09;5094656;28;20043;-65
2022/11/03 09:09:33;;;;;;;3.63;1.85;;;;;;;21.15;46.82;100839.81;5096449;28;20035;-65
2022/11/03 09:11:58;;;;;;;3.85;2.35;;;;;;;21.12;47.09;100839.19;5088949;28;20046;-65
2022/11/03 09:14:24;;;;;;;4.90;2.20;;;;;;;21.07;47.58;100817.75;5100993;28;20862;-65
2022/11/03 09:16:49;;;;;;;5.80;2.55;;;;;;;21.09;46.87;100818.38;5100361;28;20058;-65
2022/11/03 09:19:15;;;;;;;3.85;2.17;;;;;;;21.05;47.47;100818.97;5089578;28;20450;-65
2022/11/03 09:21:40;;;;;;;4.55;2.10;;;;;;;21.10;47.57;100816.56;5092738;28;20035;-65
2022/11/03 09:24:06;;;;;;;4.45;2.22;;;;;;;21.07;47.27;100816.94;5103164;28;20035;-65
2022/11/03 09:26:32;;;;;;;4.10;2.00;;;;;;;21.01;47.13;100815.06;5095758;28;20043;-65
2022/11/03 09:28:57;;;;;;;4.03;2.10;;;;;;;21.12;46.70;100814.53;5091070;28;20412;-64
2022/11/03 09:31:27;;;;;;;3.88;1.70;;;;;;;21.15;46.90;100815.97;5094332;28;20044;-65
2022/11/03 09:33:53;;;;;;;6.60;2.42;;;;;;;21.11;46.96;100811.06;5091620;28;20055;-65
2022/11/03 09:36:18;;;;;;;3.25;1.80;;;;;;;21.00;47.53;100803.59;5093972;28;20044;-65
2022/11/03 09:38:44;;;;;;;6.03;2.30;;;;;;;21.01;47.35;100794.69;5093177;28;20047;-65
2022/11/03 09:41:16;;;;;;;4.00;1.67;;;;;;;21.09;47.09;100794.56;5088970;28;20032;-65
2022/11/03 09:43:43;;;;;;;4.70;2.13;;;;;;;21.07;46.83;100788.63;5096655;28;20048;-65
2022/11/03 09:46:09;;;;;;;6.07;2.13;;;;;;;21.07;47.31;100787.81;5085315;28;20085;-65
2022/11/03 09:48:35;;;;;;;3.30;1.77;;;;;;;20.96;47.43;100788.28;5100262;28;20047;-65
2022/11/03 09:51:00;;;;;;;4.30;2.40;;;;;;;21.05;47.33;100776.59;5092971;28;20035;-65
2022/11/03 09:53:26;;;;;;;3.67;2.40;;;;;;;21.00;47.15;100771.84;5089367;28;20031;-65
2022/11/03 09:55:51;;;;;;;3.70;1.98;;;;;;;21.02;47.18;100769.84;5087962;28;21290;-64
2022/11/03 09:58:17;;;;;;;5.18;2.13;;;;;;;21.01;47.41;100759.47;5096832;28;20032;-65
2022/11/03 10:00:44;;;;;;;3.95;2.60;;;;;;;21.04;47.27;100759.88;5094720;28;20047;-65
2022/11/03 10:03:12;;;;;;;4.57;2.22;;;;;;;21.04;47.33;100756.44;5096888;28;20043;-65
2022/11/03 10:05:38;;;;;;;3.15;1.80;;;;;;;21.02;47.49;100753.16;5089257;28;20036;-65
2022/11/03 10:08:10;;;;;;;3.15;1.98;;;;;;;20.96;47.30;100743.28;5094376;28;20036;-64
2022/11/03 10:10:36;;;;;;;3.35;1.73;;;;;;;20.95;47.54;100733.72;5088491;28;20040;-65
2022/11/03 10:13:07;;;;;;;4.30;2.17;;;;;;;21.00;47.43;100729.50;5088964;28;20609;-65
2022/11/03 10:15:34;;;;;;;4.90;2.13;;;;;;;21.02;47.16;100727.50;5097196;28;20035;-65
2022/11/03 10:18:00;;;;;;;4.13;1.98;;;;;;;21.04;47.21;100735.25;5092026;28;20031;-64
2022/11/03 10:20:27;;;;;;;4.43;2.08;;;;;;;21.13;47.14;100731.44;5088725;28;20660;-65
2022/11/03 10:22:54;;;;;;;5.75;2.03;;;;;;;21.14;46.94;100722.50;5095326;28;20118;-65
2022/11/03 10:25:25;;;;;;;5.65;2.03;;;;;;;21.10;47.13;100731.81;5097087;28;20055;-65
2022/11/03 10:27:51;;;;;;;4.65;2.30;;;;;;;21.09;47.02;100728.38;5091701;28;20047;-65
2022/11/03 10:30:16;;;;;;;5.78;2.00;;;;;;;21.04;47.36;100714.06;5094068;28;20043;-65
2022/11/03 10:32:42;;;;;;;4.57;2.08;;;;;;;21.04;47.21;100714.06;5098921;28;20515;-65
2022/11/03 10:35:32;;;;;;;6.07;2.50;;;;;;;21.00;47.47;100702.19;5089471;28;20040;-65
2022/11/03 10:38:17;;;;;;;;;;;;;;;20.93;47.54;100701.34;5095921;28;20536;-65
2022/11/03 10:40:42;;;;;;;3.05;1.88;;;;;;;21.06;47.04;100694.34;5100455;28;19922;-65
2022/11/03 10:43:10;;;;;;;4.25;1.98;;;;;;;20.98;47.35;100689.16;5095831;28;20044;-65
2022/11/03 10:45:35;;;;;;;4.78;2.10;;;;;;;21.00;47.43;100676.53;5097557;28;20481;-65
2022/11/03 10:48:05;;;;;;;3.70;2.00;;;;;;;21.09;47.27;100674.59;5097310;28;20039;-65
2022/11/03 10:50:31;;;;;;;4.68;2.30;;;;;;;20.98;47.34;100673.28;5097090;28;20481;-65
2022/11/03 10:52:57;;;;;;;3.90;1.92;;;;;;;21.01;47.35;100666.81;5091155;28;20043;-65
2022/11/03 10:55:24;;;;;;;6.38;2.30;;;;;;;21.05;47.39;100658.28;5097525;28;20063;-64
2022/11/03 10:57:50;;;;;;;4.70;2.08;;;;;;;21.07;47.05;100656.25;5092580;28;20039;-64
2022/11/03 11:00:17;;;;;;;4.05;1.90;;;;;;;20.98;47.22;100643.34;5093463;28;20469;-64
2022/11/03 11:02:47;;;;;;;4.90;2.45;;;;;;;21.06;47.31;100648.50;5088457;28;20153;-65
2022/11/03 11:05:22;;;;;;;4.25;2.10;;;;;;;21.06;47.28;100648.50;5091307;28;20058;-65
2022/11/03 11:07:52;;;;;;;3.20;2.00;;;;;;;21.03;47.52;100638.31;5089904;28;20040;-64
2022/11/03 11:10:21;;;;;;;4.05;2.22;;;;;;;21.08;47.33;100630.59;5096238;28;20533;-64
2022/11/03 11:13:08;;;;;;;7.00;2.43;;;;;;;21.13;46.60;100634.28;5097511;28;20043;-65
2022/11/03 11:15:45;;;;;;;8.68;2.65;;;;;;;20.80;46.95;100612.03;5091513;28;20085;-65
2022/11/03 11:18:31;;;;;;;6.80;3.08;;;;;;;20.74;47.00;100615.44;5099364;28;20044;-65
2022/11/03 11:21:09;;;;;;;10.38;2.67;;;;;;;20.80;46.85;100609.38;5095551;28;20540;-64
2022/11/03 11:23:34;;;;;;;6.00;2.65;;;;;;;20.76;46.89;100606.31;5089891;28;20092;-65
2022/11/03 11:26:09;;;;;;;5.97;2.78;;;;;;;20.71;46.94;100605.25;5094918;28;20150;-64
2022/11/03 11:28:40;;;;;;;7.00;2.80;;;;;;;20.74;46.75;100597.75;5099303;28;20040;-65
2022/11/03 11:31:21;;;;;;;5.28;2.13;;;;;;;20.73;47.06;100596.13;5089541;28;20046;-65
2022/11/03 11:33:48;;;;;;;8.23;2.80;;;;;;;20.66;47.07;100589.16;5095178;28;20123;-65
2022/11/03 11:36:23;;;;;;;4.30;2.15;;;;;;;20.73;47.14;100590.81;5098302;28;20043;-65
2022/11/03 11:38:54;;;;;;;4.65;2.58;;;;;;;20.78;46.81;100590.25;5091327;28;20122;-65
2022/11/03 11:41:20;;;;;;;7.03;2.42;;;;;;;20.69;47.03;100578.19;5092474;28;20046;-65
2022/11/03 11:43:46;;;;;;;8.13;2.28;;;;;;;20.68;47.12;100573.91;5094040;28;20058;-65
2022/11/03 11:46:41;;;;;;;8.07;3.22;;;;;;;20.60;47.34;100574.00;5090056;28;20047;-65
2022/11/03 11:49:06;;;;;;;10.88;2.67;;;;;;;20.68;47.30;100573.91;5090023;28;20508;-65
2022/11/03 11:51:39;;;;;;;8.20;3.08;;;;;;;20.68;47.31;100561.47;5101872;28;20138;-65
2022/11/03 11:54:07;;;;;;;8.15;2.88;;;;;;;20.67;47.28;100548.44;5099247;28;22324;-65
2022/11/03 11:56:32;;;;;;;6.40;2.50;;;;;;;20.71;46.77;100542.56;5094422;28;20032;-65
2022/11/03 11:58:58;;;;;;;6.15;2.70;;;;;;;20.62;47.28;100537.59;5096012;28;20040;-65
2022/11/03 12:01:31;;;;;;;7.82;2.85;;;;;;;20.59;47.46;100530.06;5090429;28;20043;-65